sensor_id;sensor_type;location;lat;lon;timestamp;pressure;altitude;pressure_sealevel;temperature;humidity
9325;BME280;4701;51.566;6.776;2023-02-28T07:02:45;102816.56;;;-4.82;100.00
9325;BME280;4701;51.566;6.776;2023-02-28T07:04:47;102815.97;;;-4.74;100.00
9325;BME280;4701;51.566;6.776;2023-02-28T07:06:49;102815.81;;;-4.60;100.00
9325;BME280;4701;51.566;6.776;2023-02-28T07:08:51;102811.44;;;-4.50;100.00
9325;BME280;4701;51.566;6.776;2023-02-28T07:10:54;102820.31;;;-4.38;100.00
9325;BME280;4701;51.566;6.776;2023-02-28T07:12:56;102815.97;;;-4.28;100.00
9325;BME280;4701;51.566;6.776;2023-02-28T07:14:59;102815.13;;;-4.17;100.00
9325;BME280;4701;51.566;6.776;2023-02-28T07:17:07;102820.44;;;-4.06;100.00
9325;BME280;4701;51.566;6.776;2023-02-28T07:19:17;102820.47;;;-3.95;100.00
9325;BME280;4701;51.566;6.776;2023-02-28T07:21:23;102817.06;;;-3.86;100.00
9325;BME280;4701;51.566;6.776;2023-02-28T07:23:32;102825.91;;;-3.74;100.00
9325;BME280;4701;51.566;6.776;2023-02-28T07:25:40;102824.31;;;-3.66;100.00
9325;BME280;4701;51.566;6.776;2023-02-28T07:27:48;102828.75;;;-3.55;100.00
9325;BME280;4701;51.566;6.776;2023-02-28T07:29:53;102830.81;;;-3.48;100.00
9325;BME280;4701;51.566;6.776;2023-02-28T07:31:55;102834.31;;;-3.36;100.00
9325;BME280;4701;51.566;6.776;2023-02-28T07:33:57;102828.84;;;-3.23;100.00
9325;BME280;4701;51.566;6.776;2023-02-28T07:36:05;102824.53;;;-3.15;100.00
9325;BME280;4701;51.566;6.776;2023-02-28T07:38:07;102832.38;;;-3.02;100.00
9325;BME280;4701;51.566;6.776;2023-02-28T07:40:11;102829.41;;;-2.88;100.00
9325;BME280;4701;51.566;6.776;2023-02-28T07:42:13;102834.69;;;-2.77;100.00
9325;BME280;4701;51.566;6.776;2023-02-28T07:44:15;102835.88;;;-2.70;100.00
9325;BME280;4701;51.566;6.776;2023-02-28T07:46:17;102834.97;;;-2.59;100.00
9325;BME280;4701;51.566;6.776;2023-02-28T07:48:21;102835.16;;;-2.51;100.00
9325;BME280;4701;51.566;6.776;2023-02-28T07:50:23;102837.78;;;-2.40;100.00
9325;BME280;4701;51.566;6.776;2023-02-28T07:52:27;102840.34;;;-2.29;100.00
9325;BME280;4701;51.566;6.776;2023-02-28T07:54:28;102843.50;;;-2.23;100.00
9325;BME280;4701;51.566;6.776;2023-02-28T07:56:30;102843.41;;;-2.12;100.00
9325;BME280;4701;51.566;6.776;2023-02-28T07:58:32;102840.78;;;-2.03;100.00
9325;BME280;4701;51.566;6.776;2023-02-28T08:00:34;102841.38;;;-1.99;100.00
9325;BME280;4701;51.566;6.776;2023-02-28T08:02:36;102840.44;;;-1.88;100.00
9325;BME280;4701;51.566;6.776;2023-02-28T08:04:37;102840.63;;;-1.80;99.34
9325;BME280;4701;51.566;6.776;2023-02-28T08:06:39;102840.38;;;-1.68;99.10
9325;BME280;4701;51.566;6.776;2023-02-28T08:08:43;102835.19;;;-1.60;97.90
9325;BME280;4701;51.566;6.776;2023-02-28T08:10:44;102842.97;;;-1.47;97.30
9325;BME280;4701;51.566;6.776;2023-02-28T08:12:46;102843.28;;;-1.40;95.65
9325;BME280;4701;51.566;6.776;2023-02-28T08:14:48;102844.41;;;-1.33;94.26
9325;BME280;4701;51.566;6.776;2023-02-28T08:16:50;102841.63;;;-1.22;93.10
9325;BME280;4701;51.566;6.776;2023-02-28T08:18:52;102840.66;;;-1.11;91.86
9325;BME280;4701;51.566;6.776;2023-02-28T08:20:54;102848.38;;;-1.08;90.29
9325;BME280;4701;51.566;6.776;2023-02-28T08:22:57;102844.75;;;-0.98;89.14
9325;BME280;4701;51.566;6.776;2023-02-28T08:25:00;102841.94;;;-0.87;88.68
9325;BME280;4701;51.566;6.776;2023-02-28T08:27:02;102843.91;;;-0.79;86.97
9325;BME280;4701;51.566;6.776;2023-02-28T08:29:04;102847.44;;;-0.69;86.66
9325;BME280;4701;51.566;6.776;2023-02-28T08:31:11;102840.53;;;-0.62;84.94
9325;BME280;4701;51.566;6.776;2023-02-28T08:33:13;102843.91;;;-0.60;83.62
9325;BME280;4701;51.566;6.776;2023-02-28T08:35:15;102845.44;;;-0.48;83.50
9325;BME280;4701;51.566;6.776;2023-02-28T08:37:17;102852.75;;;-0.40;82.30
9325;BME280;4701;51.566;6.776;2023-02-28T08:39:19;102856.00;;;-0.36;81.61
9325;BME280;4701;51.566;6.776;2023-02-28T08:41:22;102847.38;;;-0.30;80.79
9325;BME280;4701;51.566;6.776;2023-02-28T08:43:24;102851.28;;;-0.15;80.35
9325;BME280;4701;51.566;6.776;2023-02-28T08:45:26;102845.34;;;-0.09;79.49
9325;BME280;4701;51.566;6.776;2023-02-28T08:47:28;102850.66;;;0.00;79.03
9325;BME280;4701;51.566;6.776;2023-02-28T08:49:30;102836.94;;;0.13;78.88
9325;BME280;4701;51.566;6.776;2023-02-28T08:51:32;102844.94;;;0.23;77.82
9325;BME280;4701;51.566;6.776;2023-02-28T08:53:34;102830.94;;;0.29;77.67
9325;BME280;4701;51.566;6.776;2023-02-28T08:55:36;102838.56;;;0.33;77.14
9325;BME280;4701;51.566;6.776;2023-02-28T08:57:39;102838.47;;;0.43;75.92
9325;BME280;4701;51.566;6.776;2023-02-28T08:59:41;102836.22;;;0.48;75.75
9325;BME280;4701;51.566;6.776;2023-02-28T09:01:43;102838.16;;;0.56;74.99
9325;BME280;4701;51.566;6.776;2023-02-28T09:03:46;102829.50;;;0.62;74.97
9325;BME280;4701;51.566;6.776;2023-02-28T09:05:53;102832.66;;;0.75;73.14
9325;BME280;4701;51.566;6.776;2023-02-28T09:07:55;102839.34;;;0.89;72.77
9325;BME280;4701;51.566;6.776;2023-02-28T09:09:57;102834.59;;;1.00;71.96
9325;BME280;4701;51.566;6.776;2023-02-28T09:11:59;102831.66;;;1.11;70.96
9325;BME280;4701;51.566;6.776;2023-02-28T09:14:03;102829.06;;;1.20;70.23
9325;BME280;4701;51.566;6.776;2023-02-28T09:16:09;102823.59;;;1.29;70.54
9325;BME280;4701;51.566;6.776;2023-02-28T09:18:12;102828.44;;;1.43;68.83
9325;BME280;4701;51.566;6.776;2023-02-28T09:20:14;102825.66;;;1.53;68.01
9325;BME280;4701;51.566;6.776;2023-02-28T09:22:16;102821.75;;;1.47;65.96
9325;BME280;4701;51.566;6.776;2023-02-28T09:24:18;102822.59;;;1.48;64.68
9325;BME280;4701;51.566;6.776;2023-02-28T09:26:22;102821.44;;;1.50;64.20
9325;BME280;4701;51.566;6.776;2023-02-28T09:28:25;102824.69;;;1.62;63.75
9325;BME280;4701;51.566;6.776;2023-02-28T09:30:29;102819.22;;;1.72;62.64
9325;BME280;4701;51.566;6.776;2023-02-28T09:32:31;102816.38;;;1.73;62.81
9325;BME280;4701;51.566;6.776;2023-02-28T09:34:32;102814.22;;;1.77;62.67
9325;BME280;4701;51.566;6.776;2023-02-28T09:36:34;102812.59;;;1.84;60.85
9325;BME280;4701;51.566;6.776;2023-02-28T09:38:38;102814.63;;;1.90;60.31
9325;BME280;4701;51.566;6.776;2023-02-28T09:40:48;102816.31;;;1.91;59.58
9325;BME280;4701;51.566;6.776;2023-02-28T09:42:52;102816.72;;;2.04;58.77
9325;BME280;4701;51.566;6.776;2023-02-28T09:44:55;102811.03;;;2.07;58.38
9325;BME280;4701;51.566;6.776;2023-02-28T09:47:04;102804.69;;;2.16;59.31
9325;BME280;4701;51.566;6.776;2023-02-28T09:49:12;102813.78;;;2.23;57.88
9325;BME280;4701;51.566;6.776;2023-02-28T09:51:27;102810.84;;;2.43;57.54
9325;BME280;4701;51.566;6.776;2023-02-28T09:53:33;102810.72;;;2.52;57.43
9325;BME280;4701;51.566;6.776;2023-02-28T09:55:39;102808.22;;;2.59;56.67
9325;BME280;4701;51.566;6.776;2023-02-28T09:57:44;102810.72;;;2.52;57.67
9325;BME280;4701;51.566;6.776;2023-02-28T09:59:57;102806.91;;;2.63;56.04
9325;BME280;4701;51.566;6.776;2023-02-28T10:02:13;102808.94;;;2.85;54.97
9325;BME280;4701;51.566;6.776;2023-02-28T10:04:33;102808.63;;;2.88;55.27
9325;BME280;4701;51.566;6.776;2023-02-28T10:06:44;102807.94;;;2.86;54.95
9325;BME280;4701;51.566;6.776;2023-02-28T10:08:55;102812.50;;;2.86;55.70
9325;BME280;4701;51.566;6.776;2023-02-28T10:11:01;102806.78;;;2.89;55.32
9325;BME280;4701;51.566;6.776;2023-02-28T10:13:10;102803.75;;;3.00;54.47
9325;BME280;4701;51.566;6.776;2023-02-28T10:15:15;102800.38;;;2.98;55.03
9325;BME280;4701;51.566;6.776;2023-02-28T10:17:21;102799.03;;;3.02;54.51
9325;BME280;4701;51.566;6.776;2023-02-28T10:19:27;102794.66;;;3.17;53.71
9325;BME280;4701;51.566;6.776;2023-02-28T10:21:36;102799.22;;;3.25;53.70
9325;BME280;4701;51.566;6.776;2023-02-28T10:23:39;102794.84;;;3.56;53.42
9325;BME280;4701;51.566;6.776;2023-02-28T10:25:45;102796.00;;;3.62;51.76
9325;BME280;4701;51.566;6.776;2023-02-28T10:27:50;102787.91;;;3.54;54.49
9325;BME280;4701;51.566;6.776;2023-02-28T10:29:56;102791.13;;;3.57;54.30
9325;BME280;4701;51.566;6.776;2023-02-28T10:32:01;102798.34;;;3.73;52.81
9325;BME280;4701;51.566;6.776;2023-02-28T10:34:05;102802.69;;;3.90;53.22
9325;BME280;4701;51.566;6.776;2023-02-28T10:36:12;102792.56;;;3.84;52.63
9325;BME280;4701;51.566;6.776;2023-02-28T10:38:18;102791.53;;;3.93;52.90
9325;BME280;4701;51.566;6.776;2023-02-28T10:40:31;102785.13;;;3.94;50.08
9325;BME280;4701;51.566;6.776;2023-02-28T10:42:33;102788.13;;;4.07;50.64
9325;BME280;4701;51.566;6.776;2023-02-28T10:44:39;102783.75;;;4.06;51.11
9325;BME280;4701;51.566;6.776;2023-02-28T10:46:41;102783.38;;;4.09;51.15
9325;BME280;4701;51.566;6.776;2023-02-28T10:48:45;102776.13;;;4.10;50.57
9325;BME280;4701;51.566;6.776;2023-02-28T10:50:53;102771.88;;;4.24;49.90
9325;BME280;4701;51.566;6.776;2023-02-28T10:53:10;102785.63;;;4.37;50.98
9325;BME280;4701;51.566;6.776;2023-02-28T10:55:21;102779.13;;;4.54;49.93
9325;BME280;4701;51.566;6.776;2023-02-28T10:57:25;102768.00;;;4.80;49.56
9325;BME280;4701;51.566;6.776;2023-02-28T10:59:30;102769.81;;;4.87;49.10
9325;BME280;4701;51.566;6.776;2023-02-28T11:01:37;102763.88;;;4.92;50.41
9325;BME280;4701;51.566;6.776;2023-02-28T11:03:39;102772.09;;;4.99;50.21
9325;BME280;4701;51.566;6.776;2023-02-28T11:05:42;102771.59;;;5.18;48.93
9325;BME280;4701;51.566;6.776;2023-02-28T11:07:51;102767.16;;;5.25;49.15
9325;BME280;4701;51.566;6.776;2023-02-28T11:09:54;102767.84;;;5.42;48.35
9325;BME280;4701;51.566;6.776;2023-02-28T11:11:57;102766.91;;;5.49;47.97
9325;BME280;4701;51.566;6.776;2023-02-28T11:14:04;102771.28;;;5.36;47.16
9325;BME280;4701;51.566;6.776;2023-02-28T11:16:09;102769.00;;;5.24;48.11
9325;BME280;4701;51.566;6.776;2023-02-28T11:18:21;102779.25;;;5.29;47.68
9325;BME280;4701;51.566;6.776;2023-02-28T11:20:27;102764.13;;;5.43;47.81
9325;BME280;4701;51.566;6.776;2023-02-28T11:22:32;102761.69;;;5.48;47.00
9325;BME280;4701;51.566;6.776;2023-02-28T11:24:42;102763.28;;;5.42;48.82
9325;BME280;4701;51.566;6.776;2023-02-28T11:26:47;102771.75;;;5.54;49.08
9325;BME280;4701;51.566;6.776;2023-02-28T11:29:03;102773.66;;;5.68;48.20
9325;BME280;4701;51.566;6.776;2023-02-28T11:31:25;102765.38;;;5.69;46.73
9325;BME280;4701;51.566;6.776;2023-02-28T11:33:31;102759.84;;;5.63;46.39
9325;BME280;4701;51.566;6.776;2023-02-28T11:35:36;102755.31;;;5.78;46.60
9325;BME280;4701;51.566;6.776;2023-02-28T11:37:40;102756.53;;;5.90;47.43
9325;BME280;4701;51.566;6.776;2023-02-28T11:39:44;102770.72;;;5.92;46.93
9325;BME280;4701;51.566;6.776;2023-02-28T11:41:58;102764.84;;;6.03;46.44
9325;BME280;4701;51.566;6.776;2023-02-28T11:44:12;102763.34;;;6.01;46.61
9325;BME280;4701;51.566;6.776;2023-02-28T11:46:26;102757.25;;;5.84;47.34
9325;BME280;4701;51.566;6.776;2023-02-28T11:48:39;102755.94;;;5.80;46.21
9325;BME280;4701;51.566;6.776;2023-02-28T11:50:49;102756.84;;;5.58;48.10
9325;BME280;4701;51.566;6.776;2023-02-28T11:52:55;102762.28;;;5.58;47.66
9325;BME280;4701;51.566;6.776;2023-02-28T11:55:05;102751.84;;;5.69;47.83
9325;BME280;4701;51.566;6.776;2023-02-28T11:57:23;102758.16;;;5.62;47.88
9325;BME280;4701;51.566;6.776;2023-02-28T11:59:39;102751.09;;;5.61;48.13
9325;BME280;4701;51.566;6.776;2023-02-28T12:02:04;102746.13;;;5.79;46.46
9325;BME280;4701;51.566;6.776;2023-02-28T12:04:17;102744.75;;;5.83;47.24
9325;BME280;4701;51.566;6.776;2023-02-28T12:06:25;102736.94;;;6.03;48.03
9325;BME280;4701;51.566;6.776;2023-02-28T12:08:44;102738.97;;;6.16;45.70
9325;BME280;4701;51.566;6.776;2023-02-28T12:11:02;102731.28;;;6.34;44.64
9325;BME280;4701;51.566;6.776;2023-02-28T12:13:15;102730.63;;;6.68;45.40
9325;BME280;4701;51.566;6.776;2023-02-28T12:15:52;102734.47;;;7.22;44.27
9325;BME280;4701;51.566;6.776;2023-02-28T12:18:08;102721.59;;;7.66;41.03
9325;BME280;4701;51.566;6.776;2023-02-28T12:22:28;102704.72;;;8.05;38.01
9325;BME280;4701;51.566;6.776;2023-02-28T12:24:47;102702.84;;;8.72;38.21
9325;BME280;4701;51.566;6.776;2023-02-28T12:26:57;102701.63;;;8.95;37.59
9325;BME280;4701;51.566;6.776;2023-02-28T12:29:05;102695.53;;;9.39;37.06
9325;BME280;4701;51.566;6.776;2023-02-28T12:31:16;102698.53;;;10.46;34.33
9325;BME280;4701;51.566;6.776;2023-02-28T12:33:22;102695.06;;;11.45;33.13
9325;BME280;4701;51.566;6.776;2023-02-28T12:35:31;102681.81;;;12.03;32.52
9325;BME280;4701;51.566;6.776;2023-02-28T12:37:37;102677.16;;;12.52;32.36
9325;BME280;4701;51.566;6.776;2023-02-28T12:39:42;102676.31;;;12.81;30.58
9325;BME280;4701;51.566;6.776;2023-02-28T12:41:50;102682.81;;;13.57;29.48
9325;BME280;4701;51.566;6.776;2023-02-28T12:43:58;102685.81;;;12.19;31.62
9325;BME280;4701;51.566;6.776;2023-02-28T12:46:07;102671.69;;;12.52;30.58
9325;BME280;4701;51.566;6.776;2023-02-28T12:48:14;102673.19;;;12.36;30.88
9325;BME280;4701;51.566;6.776;2023-02-28T12:50:17;102668.22;;;12.15;30.82
9325;BME280;4701;51.566;6.776;2023-02-28T12:52:23;102664.50;;;12.09;30.65
9325;BME280;4701;51.566;6.776;2023-02-28T12:54:29;102672.34;;;12.06;31.79
9325;BME280;4701;51.566;6.776;2023-02-28T12:56:43;102671.22;;;11.77;33.61
9325;BME280;4701;51.566;6.776;2023-02-28T12:58:50;102658.81;;;11.93;31.17
9325;BME280;4701;51.566;6.776;2023-02-28T13:01:15;102661.59;;;12.23;31.34
9325;BME280;4701;51.566;6.776;2023-02-28T13:03:42;102654.38;;;11.98;31.53
9325;BME280;4701;51.566;6.776;2023-02-28T13:08:59;102660.50;;;11.75;30.98
9325;BME280;4701;51.566;6.776;2023-02-28T13:11:02;102655.56;;;12.02;31.50
9325;BME280;4701;51.566;6.776;2023-02-28T13:13:04;102644.56;;;11.72;32.27
9325;BME280;4701;51.566;6.776;2023-02-28T13:15:08;102650.47;;;11.69;33.48
9325;BME280;4701;51.566;6.776;2023-02-28T13:17:21;102647.00;;;12.29;32.37
9325;BME280;4701;51.566;6.776;2023-02-28T13:19:28;102645.00;;;12.77;31.01
9325;BME280;4701;51.566;6.776;2023-02-28T13:21:42;102639.78;;;13.11;30.25
9325;BME280;4701;51.566;6.776;2023-02-28T13:23:59;102636.13;;;13.05;29.95
9325;BME280;4701;51.566;6.776;2023-02-28T13:26:02;102640.84;;;12.86;31.90
9325;BME280;4701;51.566;6.776;2023-02-28T13:28:09;102640.69;;;12.70;31.67
9325;BME280;4701;51.566;6.776;2023-02-28T13:35:42;102635.78;;;12.19;31.37
9325;BME280;4701;51.566;6.776;2023-02-28T13:37:47;102643.03;;;11.95;32.36
9325;BME280;4701;51.566;6.776;2023-02-28T13:39:54;102644.84;;;12.01;32.56
9325;BME280;4701;51.566;6.776;2023-02-28T13:41:56;102639.69;;;12.11;32.49
9325;BME280;4701;51.566;6.776;2023-02-28T13:44:01;102632.09;;;12.13;32.20
9325;BME280;4701;51.566;6.776;2023-02-28T13:46:06;102634.06;;;12.36;32.51
9325;BME280;4701;51.566;6.776;2023-02-28T13:48:19;102635.56;;;11.90;33.56
9325;BME280;4701;51.566;6.776;2023-02-28T13:50:32;102630.00;;;11.79;32.31
9325;BME280;4701;51.566;6.776;2023-02-28T13:52:44;102629.22;;;12.38;32.53
9325;BME280;4701;51.566;6.776;2023-02-28T13:54:56;102632.31;;;13.30;30.46
9325;BME280;4701;51.566;6.776;2023-02-28T13:57:12;102629.66;;;13.70;30.39
9325;BME280;4701;51.566;6.776;2023-02-28T13:59:23;102638.16;;;13.96;30.26
9325;BME280;4701;51.566;6.776;2023-02-28T14:01:42;102631.97;;;13.89;30.38
9325;BME280;4701;51.566;6.776;2023-02-28T14:04:02;102633.41;;;13.92;30.18
9325;BME280;4701;51.566;6.776;2023-02-28T14:06:17;102629.63;;;13.81;29.97
9325;BME280;4701;51.566;6.776;2023-02-28T14:08:22;102627.19;;;13.10;31.21
9325;BME280;4701;51.566;6.776;2023-02-28T14:10:27;102630.66;;;13.40;30.28
9325;BME280;4701;51.566;6.776;2023-02-28T14:12:55;102624.44;;;12.98;31.33
9325;BME280;4701;51.566;6.776;2023-02-28T14:14:58;102621.94;;;12.97;30.80
9325;BME280;4701;51.566;6.776;2023-02-28T14:17:01;102615.03;;;13.06;31.07
9325;BME280;4701;51.566;6.776;2023-02-28T14:19:11;102608.56;;;12.54;32.40
9325;BME280;4701;51.566;6.776;2023-02-28T14:21:20;102633.91;;;11.28;34.65
9325;BME280;4701;51.566;6.776;2023-02-28T14:23:41;102624.44;;;11.30;33.93
9325;BME280;4701;51.566;6.776;2023-02-28T14:25:54;102634.03;;;11.76;34.27
9325;BME280;4701;51.566;6.776;2023-02-28T14:28:12;102635.38;;;12.75;32.22
9325;BME280;4701;51.566;6.776;2023-02-28T14:30:26;102629.63;;;13.18;31.44
9325;BME280;4701;51.566;6.776;2023-02-28T14:32:33;102631.22;;;13.54;31.13
9325;BME280;4701;51.566;6.776;2023-02-28T14:34:41;102623.59;;;13.68;31.15
9325;BME280;4701;51.566;6.776;2023-02-28T14:36:50;102623.22;;;12.71;31.69
9325;BME280;4701;51.566;6.776;2023-02-28T14:38:57;102623.22;;;11.63;33.04
9325;BME280;4701;51.566;6.776;2023-02-28T14:41:03;102619.25;;;10.48;34.94
9325;BME280;4701;51.566;6.776;2023-02-28T14:43:20;102626.66;;;9.96;36.17
9325;BME280;4701;51.566;6.776;2023-02-28T14:45:23;102610.16;;;9.27;37.29
9325;BME280;4701;51.566;6.776;2023-02-28T14:47:28;102615.81;;;9.12;38.14
9325;BME280;4701;51.566;6.776;2023-02-28T14:49:35;102602.88;;;8.94;38.21
9325;BME280;4701;51.566;6.776;2023-02-28T14:51:38;102592.03;;;8.81;38.70
9325;BME280;4701;51.566;6.776;2023-02-28T14:53:40;102613.31;;;9.04;39.23
9325;BME280;4701;51.566;6.776;2023-02-28T14:55:46;102616.63;;;9.90;38.62
9325;BME280;4701;51.566;6.776;2023-02-28T14:57:55;102604.13;;;11.45;35.87
9325;BME280;4701;51.566;6.776;2023-02-28T15:00:03;102616.94;;;12.29;33.82
9325;BME280;4701;51.566;6.776;2023-02-28T15:02:19;102611.69;;;11.61;34.21
9325;BME280;4701;51.566;6.776;2023-02-28T15:04:25;102612.38;;;11.20;34.51
9325;BME280;4701;51.566;6.776;2023-02-28T15:06:27;102605.47;;;10.92;34.97
9325;BME280;4701;51.566;6.776;2023-02-28T15:08:30;102601.16;;;10.60;35.65
9325;BME280;4701;51.566;6.776;2023-02-28T15:10:36;102611.28;;;10.46;35.58
9325;BME280;4701;51.566;6.776;2023-02-28T15:12:40;102612.91;;;10.85;35.57
9325;BME280;4701;51.566;6.776;2023-02-28T15:14:43;102597.13;;;11.67;33.77
9325;BME280;4701;51.566;6.776;2023-02-28T15:16:47;102598.25;;;12.26;32.95
9325;BME280;4701;51.566;6.776;2023-02-28T15:18:54;102593.31;;;12.04;33.54
9325;BME280;4701;51.566;6.776;2023-02-28T15:21:01;102606.09;;;11.56;34.13
9325;BME280;4701;51.566;6.776;2023-02-28T15:23:04;102599.31;;;11.04;33.73
9325;BME280;4701;51.566;6.776;2023-02-28T15:25:07;102601.78;;;10.87;35.01
9325;BME280;4701;51.566;6.776;2023-02-28T15:27:16;102603.44;;;11.31;34.61
9325;BME280;4701;51.566;6.776;2023-02-28T15:29:25;102602.75;;;11.35;34.06
9325;BME280;4701;51.566;6.776;2023-02-28T15:31:31;102603.34;;;11.37;33.87
9325;BME280;4701;51.566;6.776;2023-02-28T15:33:34;102594.41;;;11.30;33.93
9325;BME280;4701;51.566;6.776;2023-02-28T15:35:35;102601.22;;;11.21;33.75
9325;BME280;4701;51.566;6.776;2023-02-28T15:37:40;102600.69;;;11.13;34.31
9325;BME280;4701;51.566;6.776;2023-02-28T15:39:43;102598.53;;;10.96;34.53
9325;BME280;4701;51.566;6.776;2023-02-28T15:41:46;102590.28;;;11.03;33.75
9325;BME280;4701;51.566;6.776;2023-02-28T15:43:48;102587.66;;;11.33;34.00
9325;BME280;4701;51.566;6.776;2023-02-28T15:45:51;102596.91;;;11.14;34.84
9325;BME280;4701;51.566;6.776;2023-02-28T15:47:54;102595.25;;;10.88;34.30
9325;BME280;4701;51.566;6.776;2023-02-28T15:49:58;102588.81;;;10.26;35.78
9325;BME280;4701;51.566;6.776;2023-02-28T15:52:02;102588.84;;;10.13;36.73
9325;BME280;4701;51.566;6.776;2023-02-28T15:54:07;102594.09;;;9.76;36.86
9325;BME280;4701;51.566;6.776;2023-02-28T15:56:21;102597.72;;;9.57;36.84
9325;BME280;4701;51.566;6.776;2023-02-28T15:58:24;102595.31;;;9.80;37.33
9325;BME280;4701;51.566;6.776;2023-02-28T16:00:28;102586.88;;;9.95;35.81
9325;BME280;4701;51.566;6.776;2023-02-28T16:02:35;102596.78;;;9.83;36.42
9325;BME280;4701;51.566;6.776;2023-02-28T16:04:54;102603.97;;;10.09;36.98
9325;BME280;4701;51.566;6.776;2023-02-28T16:07:01;102601.41;;;10.14;36.92
9325;BME280;4701;51.566;6.776;2023-02-28T16:09:04;102605.03;;;10.46;36.54
9325;BME280;4701;51.566;6.776;2023-02-28T16:11:08;102599.06;;;10.80;35.56
9325;BME280;4701;51.566;6.776;2023-02-28T16:13:11;102595.53;;;10.23;36.81
9325;BME280;4701;51.566;6.776;2023-02-28T16:15:20;102592.28;;;10.02;36.53
9325;BME280;4701;51.566;6.776;2023-02-28T16:17:25;102586.56;;;9.72;37.08
9325;BME280;4701;51.566;6.776;2023-02-28T16:19:29;102590.41;;;9.44;37.14
9325;BME280;4701;51.566;6.776;2023-02-28T16:21:31;102592.03;;;8.75;38.88
9325;BME280;4701;51.566;6.776;2023-02-28T16:23:33;102596.75;;;8.20;39.68
9325;BME280;4701;51.566;6.776;2023-02-28T16:25:36;102596.28;;;8.10;40.40
9325;BME280;4701;51.566;6.776;2023-02-28T16:27:38;102597.78;;;7.58;41.16
9325;BME280;4701;51.566;6.776;2023-02-28T16:29:40;102609.34;;;7.73;41.48
9325;BME280;4701;51.566;6.776;2023-02-28T16:31:42;102607.31;;;7.82;41.64
9325;BME280;4701;51.566;6.776;2023-02-28T16:33:44;102600.75;;;7.63;42.04
9325;BME280;4701;51.566;6.776;2023-02-28T16:35:48;102601.56;;;7.22;42.31
9325;BME280;4701;51.566;6.776;2023-02-28T16:37:51;102616.69;;;7.04;43.29
9325;BME280;4701;51.566;6.776;2023-02-28T16:39:53;102618.09;;;7.00;43.06
9325;BME280;4701;51.566;6.776;2023-02-28T16:41:55;102617.75;;;6.81;43.70
9325;BME280;4701;51.566;6.776;2023-02-28T16:43:58;102623.53;;;6.72;44.05
9325;BME280;4701;51.566;6.776;2023-02-28T16:46:01;102612.53;;;6.59;44.67
9325;BME280;4701;51.566;6.776;2023-02-28T16:48:04;102621.84;;;6.28;45.14
9325;BME280;4701;51.566;6.776;2023-02-28T16:50:12;102611.00;;;6.07;45.32
9325;BME280;4701;51.566;6.776;2023-02-28T16:52:16;102615.69;;;5.84;46.09
9325;BME280;4701;51.566;6.776;2023-02-28T16:54:18;102629.13;;;5.62;46.17
9325;BME280;4701;51.566;6.776;2023-02-28T16:56:21;102619.00;;;5.35;47.52
9325;BME280;4701;51.566;6.776;2023-02-28T16:58:23;102622.34;;;5.08;48.01
9325;BME280;4701;51.566;6.776;2023-02-28T17:00:28;102628.75;;;4.92;48.16
9325;BME280;4701;51.566;6.776;2023-02-28T17:02:31;102626.38;;;4.74;48.76
9325;BME280;4701;51.566;6.776;2023-02-28T17:04:32;102625.88;;;4.56;49.36
9325;BME280;4701;51.566;6.776;2023-02-28T17:06:34;102634.88;;;4.48;49.67
9325;BME280;4701;51.566;6.776;2023-02-28T17:08:38;102630.91;;;4.36;49.85
9325;BME280;4701;51.566;6.776;2023-02-28T17:10:40;102630.50;;;4.25;50.40
9325;BME280;4701;51.566;6.776;2023-02-28T17:12:42;102624.31;;;4.16;51.06
9325;BME280;4701;51.566;6.776;2023-02-28T17:14:44;102633.16;;;4.02;50.89
9325;BME280;4701;51.566;6.776;2023-02-28T17:16:45;102637.75;;;3.93;51.68
9325;BME280;4701;51.566;6.776;2023-02-28T17:18:47;102648.25;;;3.88;52.02
9325;BME280;4701;51.566;6.776;2023-02-28T17:20:49;102648.44;;;3.78;52.39
9325;BME280;4701;51.566;6.776;2023-02-28T17:22:51;102647.97;;;3.67;52.06
9325;BME280;4701;51.566;6.776;2023-02-28T17:24:55;102654.25;;;3.59;52.79
9325;BME280;4701;51.566;6.776;2023-02-28T17:26:58;102650.75;;;3.51;52.92
9325;BME280;4701;51.566;6.776;2023-02-28T17:29:00;102650.28;;;3.47;53.62
9325;BME280;4701;51.566;6.776;2023-02-28T17:31:02;102646.59;;;3.40;54.03
9325;BME280;4701;51.566;6.776;2023-02-28T17:33:03;102654.50;;;3.33;53.82
9325;BME280;4701;51.566;6.776;2023-02-28T17:35:06;102658.44;;;3.23;53.85
9325;BME280;4701;51.566;6.776;2023-02-28T17:37:09;102661.63;;;3.18;53.93
9325;BME280;4701;51.566;6.776;2023-02-28T17:39:11;102666.69;;;3.13;54.63
9325;BME280;4701;51.566;6.776;2023-02-28T17:41:16;102668.88;;;3.10;54.43
9325;BME280;4701;51.566;6.776;2023-02-28T17:43:18;102672.25;;;3.03;55.25
9325;BME280;4701;51.566;6.776;2023-02-28T17:45:20;102670.91;;;2.99;55.54
9325;BME280;4701;51.566;6.776;2023-02-28T17:47:22;102673.44;;;2.93;55.65
9325;BME280;4701;51.566;6.776;2023-02-28T17:49:24;102669.91;;;2.84;56.38
9325;BME280;4701;51.566;6.776;2023-02-28T17:51:26;102674.44;;;2.76;56.48
9325;BME280;4701;51.566;6.776;2023-02-28T17:53:27;102662.16;;;2.65;56.51
9325;BME280;4701;51.566;6.776;2023-02-28T17:55:29;102669.22;;;2.58;56.93
9325;BME280;4701;51.566;6.776;2023-02-28T17:57:32;102667.22;;;2.52;57.51
9325;BME280;4701;51.566;6.776;2023-02-28T17:59:34;102657.28;;;2.44;58.01
9325;BME280;4701;51.566;6.776;2023-02-28T18:01:36;102667.19;;;2.36;57.91
9325;BME280;4701;51.566;6.776;2023-02-28T18:03:39;102666.81;;;2.22;58.75
9325;BME280;4701;51.566;6.776;2023-02-28T18:05:41;102671.53;;;2.12;59.53
9325;BME280;4701;51.566;6.776;2023-02-28T18:07:45;102669.81;;;2.03;60.23
9325;BME280;4701;51.566;6.776;2023-02-28T18:09:47;102673.63;;;1.93;61.07
9325;BME280;4701;51.566;6.776;2023-02-28T18:11:50;102672.25;;;1.80;61.27
9325;BME280;4701;51.566;6.776;2023-02-28T18:13:54;102677.75;;;1.71;61.55
9325;BME280;4701;51.566;6.776;2023-02-28T18:15:56;102676.84;;;1.62;61.91
9325;BME280;4701;51.566;6.776;2023-02-28T18:17:58;102681.19;;;1.55;62.17
9325;BME280;4701;51.566;6.776;2023-02-28T18:19:59;102683.53;;;1.50;62.73
9325;BME280;4701;51.566;6.776;2023-02-28T18:22:01;102683.69;;;1.48;62.94
9325;BME280;4701;51.566;6.776;2023-02-28T18:24:03;102690.56;;;1.43;63.87
9325;BME280;4701;51.566;6.776;2023-02-28T18:26:06;102679.97;;;1.41;64.18
9325;BME280;4701;51.566;6.776;2023-02-28T18:28:08;102692.41;;;1.42;64.76
9325;BME280;4701;51.566;6.776;2023-02-28T18:30:12;102696.25;;;1.40;65.07
9325;BME280;4701;51.566;6.776;2023-02-28T18:32:38;102689.66;;;1.34;64.30